sensor_id;sensor_type;location;lat;lon;timestamp;pressure;altitude;pressure_sealevel;temperature
67509;BMP280;54354;44.724;11.284;2024-01-15T00:00:40;100648.16;;;10.51
67509;BMP280;54354;44.724;11.284;2024-01-15T00:03:05;100632.25;;;10.51
67509;BMP280;54354;44.724;11.284;2024-01-15T00:05:31;100622.50;;;10.48
67509;BMP280;54354;44.724;11.284;2024-01-15T00:07:56;100611.53;;;10.49
67509;BMP280;54354;44.724;11.284;2024-01-15T00:10:23;100591.16;;;10.46
67509;BMP280;54354;44.724;11.284;2024-01-15T00:12:48;100593.03;;;10.46
67509;BMP280;54354;44.724;11.284;2024-01-15T00:15:14;100600.22;;;10.45
67509;BMP280;54354;44.724;11.284;2024-01-15T00:17:40;100595.69;;;10.46
67509;BMP280;54354;44.724;11.284;2024-01-15T00:20:06;100591.94;;;10.43
67509;BMP280;54354;44.724;11.284;2024-01-15T00:22:32;100580.66;;;10.39
67509;BMP280;54354;44.724;11.284;2024-01-15T00:24:58;100587.47;;;10.40
67509;BMP280;54354;44.724;11.284;2024-01-15T00:27:23;100595.72;;;10.42
67509;BMP280;54354;44.724;11.284;2024-01-15T00:29:49;100581.75;;;10.42
67509;BMP280;54354;44.724;11.284;2024-01-15T00:32:16;100575.44;;;10.35
67509;BMP280;54354;44.724;11.284;2024-01-15T00:34:41;100560.69;;;10.34
67509;BMP280;54354;44.724;11.284;2024-01-15T00:37:07;100570.97;;;10.32
67509;BMP280;54354;44.724;11.284;2024-01-15T00:39:33;100566.06;;;10.31
67509;BMP280;54354;44.724;11.284;2024-01-15T00:41:58;100564.56;;;10.30
67509;BMP280;54354;44.724;11.284;2024-01-15T00:44:24;100564.22;;;10.28
67509;BMP280;54354;44.724;11.284;2024-01-15T00:46:49;100565.72;;;10.29
67509;BMP280;54354;44.724;11.284;2024-01-15T00:49:16;100555.94;;;10.26
67509;BMP280;54354;44.724;11.284;2024-01-15T00:51:41;100554.13;;;10.23
67509;BMP280;54354;44.724;11.284;2024-01-15T00:54:07;100533.00;;;10.19
67509;BMP280;54354;44.724;11.284;2024-01-15T00:56:33;100537.19;;;10.17
67509;BMP280;54354;44.724;11.284;2024-01-15T00:58:58;100524.28;;;10.19
67509;BMP280;54354;44.724;11.284;2024-01-15T01:01:24;100534.47;;;10.20
67509;BMP280;54354;44.724;11.284;2024-01-15T01:03:49;100537.19;;;10.17
67509;BMP280;54354;44.724;11.284;2024-01-15T01:06:15;100527.75;;;10.16
67509;BMP280;54354;44.724;11.284;2024-01-15T01:08:40;100541.78;;;10.12
67509;BMP280;54354;44.724;11.284;2024-01-15T01:11:06;100539.19;;;10.09
67509;BMP280;54354;44.724;11.284;2024-01-15T01:13:32;100536.63;;;10.05
67509;BMP280;54354;44.724;11.284;2024-01-15T01:15:58;100531.38;;;10.02
67509;BMP280;54354;44.724;11.284;2024-01-15T01:18:24;100527.59;;;10.03
67509;BMP280;54354;44.724;11.284;2024-01-15T01:20:49;100520.88;;;9.98
67509;BMP280;54354;44.724;11.284;2024-01-15T01:23:15;100538.97;;;10.00
67509;BMP280;54354;44.724;11.284;2024-01-15T01:25:40;100529.88;;;10.01
67509;BMP280;54354;44.724;11.284;2024-01-15T01:28:06;100532.94;;;9.99
67509;BMP280;54354;44.724;11.284;2024-01-15T01:30:31;100539.41;;;9.98
67509;BMP280;54354;44.724;11.284;2024-01-15T01:32:57;100532.19;;;9.99
67509;BMP280;54354;44.724;11.284;2024-01-15T01:35:22;100537.47;;;9.99
67509;BMP280;54354;44.724;11.284;2024-01-15T01:37:48;100537.47;;;9.99
67509;BMP280;54354;44.724;11.284;2024-01-15T01:40:13;100531.47;;;9.98
67509;BMP280;54354;44.724;11.284;2024-01-15T01:42:39;100537.81;;;10.01
67509;BMP280;54354;44.724;11.284;2024-01-15T01:45:05;100534.03;;;10.02
67509;BMP280;54354;44.724;11.284;2024-01-15T01:47:31;100528.81;;;9.98
67509;BMP280;54354;44.724;11.284;2024-01-15T01:49:57;100508.69;;;10.01
67509;BMP280;54354;44.724;11.284;2024-01-15T01:52:23;100534.72;;;10.06
67509;BMP280;54354;44.724;11.284;2024-01-15T01:54:49;100516.63;;;10.04
67509;BMP280;54354;44.724;11.284;2024-01-15T01:57:16;100507.91;;;10.04
67509;BMP280;54354;44.724;11.284;2024-01-15T01:59:43;100510.91;;;10.06
67509;BMP280;54354;44.724;11.284;2024-01-15T02:02:08;100509.00;;;10.06
67509;BMP280;54354;44.724;11.284;2024-01-15T02:04:34;100509.00;;;10.06
67509;BMP280;54354;44.724;11.284;2024-01-15T02:07:01;100495.84;;;10.03
67509;BMP280;54354;44.724;11.284;2024-01-15T02:09:28;100490.19;;;10.01
67509;BMP280;54354;44.724;11.284;2024-01-15T02:11:53;100492.81;;;10.04
67509;BMP280;54354;44.724;11.284;2024-01-15T02:14:19;100493.94;;;10.03
67509;BMP280;54354;44.724;11.284;2024-01-15T02:16:45;100489.81;;;10.02
67509;BMP280;54354;44.724;11.284;2024-01-15T02:19:17;100479.69;;;9.97
67509;BMP280;54354;44.724;11.284;2024-01-15T02:21:43;100480.38;;;10.01
67509;BMP280;54354;44.724;11.284;2024-01-15T02:24:09;100484.50;;;10.02
67509;BMP280;54354;44.724;11.284;2024-01-15T02:26:35;100485.97;;;10.07
67509;BMP280;54354;44.724;11.284;2024-01-15T02:29:02;100493.16;;;10.06
67509;BMP280;54354;44.724;11.284;2024-01-15T02:31:27;100486.75;;;10.04
67509;BMP280;54354;44.724;11.284;2024-01-15T02:33:53;100479.22;;;10.02
67509;BMP280;54354;44.724;11.284;2024-01-15T02:36:18;100486.75;;;10.04
67509;BMP280;54354;44.724;11.284;2024-01-15T02:38:44;100484.50;;;10.02
67509;BMP280;54354;44.724;11.284;2024-01-15T02:41:09;100470.13;;;10.03
67509;BMP280;54354;44.724;11.284;2024-01-15T02:43:35;100473.13;;;10.05
67509;BMP280;54354;44.724;11.284;2024-01-15T02:46:00;100484.47;;;10.06
67509;BMP280;54354;44.724;11.284;2024-01-15T02:48:26;100474.94;;;10.08
67509;BMP280;54354;44.724;11.284;2024-01-15T02:50:51;100456.06;;;10.10
67509;BMP280;54354;44.724;11.284;2024-01-15T02:53:17;100436.38;;;10.11
67509;BMP280;54354;44.724;11.284;2024-01-15T02:55:42;100437.88;;;10.12
67509;BMP280;54354;44.724;11.284;2024-01-15T02:58:08;100439.41;;;10.09
67509;BMP280;54354;44.724;11.284;2024-01-15T03:03:09;100444.41;;;10.07
67509;BMP280;54354;44.724;11.284;2024-01-15T03:05:35;100453.47;;;10.06
67509;BMP280;54354;44.724;11.284;2024-01-15T03:08:00;100453.06;;;10.08
67509;BMP280;54354;44.724;11.284;2024-01-15T03:10:26;100441.00;;;10.07
67509;BMP280;54354;44.724;11.284;2024-01-15T03:12:51;100434.94;;;10.06
67509;BMP280;54354;44.724;11.284;2024-01-15T03:15:17;100438.38;;;10.07
67509;BMP280;54354;44.724;11.284;2024-01-15T03:17:44;100429.31;;;10.04
67509;BMP280;54354;44.724;11.284;2024-01-15T03:20:10;100418.75;;;10.04
67509;BMP280;54354;44.724;11.284;2024-01-15T03:22:36;100412.31;;;10.05
67509;BMP280;54354;44.724;11.284;2024-01-15T03:25:01;100401.72;;;10.05
67509;BMP280;54354;44.724;11.284;2024-01-15T03:27:27;100391.88;;;10.06
67509;BMP280;54354;44.724;11.284;2024-01-15T03:29:52;100389.22;;;10.06
67509;BMP280;54354;44.724;11.284;2024-01-15T03:32:18;100381.75;;;10.01
67509;BMP280;54354;44.724;11.284;2024-01-15T03:34:44;100375.81;;;9.97
67509;BMP280;54354;44.724;11.284;2024-01-15T03:37:11;100365.28;;;9.93
67509;BMP280;54354;44.724;11.284;2024-01-15T03:39:36;100369.41;;;9.94
67509;BMP280;54354;44.724;11.284;2024-01-15T03:42:02;100365.63;;;9.95
67509;BMP280;54354;44.724;11.284;2024-01-15T03:44:28;100370.50;;;9.97
67509;BMP280;54354;44.724;11.284;2024-01-15T03:46:53;100374.59;;;10.01
67509;BMP280;54354;44.724;11.284;2024-01-15T03:49:19;100376.06;;;10.02
67509;BMP280;54354;44.724;11.284;2024-01-15T03:51:44;100378.31;;;10.04
67509;BMP280;54354;44.724;11.284;2024-01-15T03:54:10;100382.72;;;10.10
67509;BMP280;54354;44.724;11.284;2024-01-15T03:56:35;100367.94;;;10.13
67509;BMP280;54354;44.724;11.284;2024-01-15T03:59:01;100370.94;;;10.15
67509;BMP280;54354;44.724;11.284;2024-01-15T04:01:26;100373.91;;;10.17
67509;BMP280;54354;44.724;11.284;2024-01-15T04:03:52;100369.34;;;10.18
67509;BMP280;54354;44.724;11.284;2024-01-15T04:06:17;100365.50;;;10.22
67509;BMP280;54354;44.724;11.284;2024-01-15T04:08:43;100354.94;;;10.22
67509;BMP280;54354;44.724;11.284;2024-01-15T04:11:08;100347.72;;;10.23
67509;BMP280;54354;44.724;11.284;2024-01-15T04:13:34;100345.00;;;10.26
67509;BMP280;54354;44.724;11.284;2024-01-15T04:16:00;100329.53;;;10.25
67509;BMP280;54354;44.724;11.284;2024-01-15T04:18:26;100332.19;;;10.25
67509;BMP280;54354;44.724;11.284;2024-01-15T04:20:51;100350.28;;;10.26
67509;BMP280;54354;44.724;11.284;2024-01-15T04:23:17;100343.50;;;10.25
67509;BMP280;54354;44.724;11.284;2024-01-15T04:25:42;100344.25;;;10.26
67509;BMP280;54354;44.724;11.284;2024-01-15T04:28:08;100341.97;;;10.28
67509;BMP280;54354;44.724;11.284;2024-01-15T04:30:34;100346.09;;;10.29
67509;BMP280;54354;44.724;11.284;2024-01-15T04:32:59;100344.94;;;10.30
67509;BMP280;54354;44.724;11.284;2024-01-15T04:35:25;100342.63;;;10.32
67509;BMP280;54354;44.724;11.284;2024-01-15T04:37:50;100358.84;;;10.34
67509;BMP280;54354;44.724;11.284;2024-01-15T04:40:16;100340.38;;;10.30
67509;BMP280;54354;44.724;11.284;2024-01-15T04:42:41;100334.03;;;10.28
67509;BMP280;54354;44.724;11.284;2024-01-15T04:45:07;100325.72;;;10.26
67509;BMP280;54354;44.724;11.284;2024-01-15T04:47:33;100319.63;;;10.29
67509;BMP280;54354;44.724;11.284;2024-01-15T04:49:58;100311.28;;;10.30
67509;BMP280;54354;44.724;11.284;2024-01-15T04:52:24;100297.28;;;10.30
67509;BMP280;54354;44.724;11.284;2024-01-15T04:54:49;100287.88;;;10.29
67509;BMP280;54354;44.724;11.284;2024-01-15T04:57:15;100297.28;;;10.30
67509;BMP280;54354;44.724;11.284;2024-01-15T04:59:40;100295.00;;;10.32
67509;BMP280;54354;44.724;11.284;2024-01-15T05:02:06;100284.31;;;10.35
67509;BMP280;54354;44.724;11.284;2024-01-15T05:04:32;100288.13;;;10.34
67509;BMP280;54354;44.724;11.284;2024-01-15T05:06:58;100289.63;;;10.35
67509;BMP280;54354;44.724;11.284;2024-01-15T05:09:23;100284.66;;;10.37
67509;BMP280;54354;44.724;11.284;2024-01-15T05:11:49;100291.44;;;10.38
67509;BMP280;54354;44.724;11.284;2024-01-15T05:14:14;100293.34;;;10.38
67509;BMP280;54354;44.724;11.284;2024-01-15T05:16:46;100281.31;;;10.33
67509;BMP280;54354;44.724;11.284;2024-01-15T05:19:12;100294.50;;;10.37
67509;BMP280;54354;44.724;11.284;2024-01-15T05:21:37;100299.81;;;10.37
67509;BMP280;54354;44.724;11.284;2024-01-15T05:24:03;100293.75;;;10.36
67509;BMP280;54354;44.724;11.284;2024-01-15T05:26:28;100293.09;;;10.32
67509;BMP280;54354;44.724;11.284;2024-01-15T05:28:54;100296.22;;;10.27
67509;BMP280;54354;44.724;11.284;2024-01-15T05:31:19;100298.53;;;10.25
67509;BMP280;54354;44.724;11.284;2024-01-15T05:33:45;100308.38;;;10.25
67509;BMP280;54354;44.724;11.284;2024-01-15T05:36:10;100302.66;;;10.26
67509;BMP280;54354;44.724;11.284;2024-01-15T05:38:36;100295.47;;;10.27
67509;BMP280;54354;44.724;11.284;2024-01-15T05:41:02;100278.03;;;10.29
67509;BMP280;54354;44.724;11.284;2024-01-15T05:43:27;100273.09;;;10.31
67509;BMP280;54354;44.724;11.284;2024-01-15T05:45:53;100267.38;;;10.33
67509;BMP280;54354;44.724;11.284;2024-01-15T05:48:18;100276.38;;;10.35
67509;BMP280;54354;44.724;11.284;2024-01-15T05:50:44;100278.22;;;10.38
67509;BMP280;54354;44.724;11.284;2024-01-15T05:53:09;100281.59;;;10.39
67509;BMP280;54354;44.724;11.284;2024-01-15T05:55:36;100273.00;;;10.35
67509;BMP280;54354;44.724;11.284;2024-01-15T05:58:03;100271.84;;;10.36
67509;BMP280;54354;44.724;11.284;2024-01-15T06:00:28;100260.13;;;10.37
67509;BMP280;54354;44.724;11.284;2024-01-15T06:02:54;100258.53;;;10.39
67509;BMP280;54354;44.724;11.284;2024-01-15T06:05:20;100275.47;;;10.42
67509;BMP280;54354;44.724;11.284;2024-01-15T06:07:45;100284.59;;;10.41
67509;BMP280;54354;44.724;11.284;2024-01-15T06:10:11;100297.09;;;10.41
67509;BMP280;54354;44.724;11.284;2024-01-15T06:12:36;100295.91;;;10.42
67509;BMP280;54354;44.724;11.284;2024-01-15T06:15:02;100307.59;;;10.44
67509;BMP280;54354;44.724;11.284;2024-01-15T06:17:28;100299.63;;;10.44
67509;BMP280;54354;44.724;11.284;2024-01-15T06:19:53;100290.88;;;10.47
67509;BMP280;54354;44.724;11.284;2024-01-15T06:22:19;100296.19;;;10.47
67509;BMP280;54354;44.724;11.284;2024-01-15T06:24:44;100295.00;;;10.48
67509;BMP280;54354;44.724;11.284;2024-01-15T06:27:09;100296.81;;;10.51
67509;BMP280;54354;44.724;11.284;2024-01-15T06:29:37;100277.25;;;10.49
67509;BMP280;54354;44.724;11.284;2024-01-15T06:32:04;100270.81;;;10.50
67509;BMP280;54354;44.724;11.284;2024-01-15T06:34:29;100269.97;;;10.53
67509;BMP280;54354;44.724;11.284;2024-01-15T06:36:55;100271.06;;;10.55
67509;BMP280;54354;44.724;11.284;2024-01-15T06:39:20;100268.41;;;10.55
67509;BMP280;54354;44.724;11.284;2024-01-15T06:41:46;100267.25;;;10.56
67509;BMP280;54354;44.724;11.284;2024-01-15T06:44:12;100258.91;;;10.58
67509;BMP280;54354;44.724;11.284;2024-01-15T06:46:47;100247.88;;;10.59
67509;BMP280;54354;44.724;11.284;2024-01-15T06:49:13;100254.59;;;10.64
67509;BMP280;54354;44.724;11.284;2024-01-15T06:51:38;100250.78;;;10.65
67509;BMP280;54354;44.724;11.284;2024-01-15T06:54:04;100247.41;;;10.64
67509;BMP280;54354;44.724;11.284;2024-01-15T06:56:30;100254.19;;;10.65
67509;BMP280;54354;44.724;11.284;2024-01-15T06:58:56;100262.53;;;10.64
67509;BMP280;54354;44.724;11.284;2024-01-15T07:01:22;100265.19;;;10.64
67509;BMP280;54354;44.724;11.284;2024-01-15T07:03:47;100255.72;;;10.63
67509;BMP280;54354;44.724;11.284;2024-01-15T07:06:13;100242.50;;;10.63
67509;BMP280;54354;44.724;11.284;2024-01-15T07:08:39;100241.00;;;10.62
67509;BMP280;54354;44.724;11.284;2024-01-15T07:11:05;100250.44;;;10.63
67509;BMP280;54354;44.724;11.284;2024-01-15T07:13:32;100264.09;;;10.61
67509;BMP280;54354;44.724;11.284;2024-01-15T07:15:57;100279.91;;;10.65
67509;BMP280;54354;44.724;11.284;2024-01-15T07:18:23;100265.94;;;10.64
67509;BMP280;54354;44.724;11.284;2024-01-15T07:20:49;100277.25;;;10.65
67509;BMP280;54354;44.724;11.284;2024-01-15T07:23:14;100290.50;;;10.65
67509;BMP280;54354;44.724;11.284;2024-01-15T07:25:40;100288.16;;;10.67
67509;BMP280;54354;44.724;11.284;2024-01-15T07:28:05;100287.00;;;10.68
67509;BMP280;54354;44.724;11.284;2024-01-15T07:30:31;100281.38;;;10.66
67509;BMP280;54354;44.724;11.284;2024-01-15T07:32:56;100265.50;;;10.66
67509;BMP280;54354;44.724;11.284;2024-01-15T07:35:22;100276.50;;;10.64
67509;BMP280;54354;44.724;11.284;2024-01-15T07:37:47;100270.06;;;10.65
67509;BMP280;54354;44.724;11.284;2024-01-15T07:40:13;100262.44;;;10.68
67509;BMP280;54354;44.724;11.284;2024-01-15T07:42:38;100290.75;;;10.71
67509;BMP280;54354;44.724;11.284;2024-01-15T07:45:05;100277.91;;;10.69
67509;BMP280;54354;44.724;11.284;2024-01-15T07:47:31;100285.09;;;10.69
67509;BMP280;54354;44.724;11.284;2024-01-15T07:49:57;100286.53;;;10.73
67509;BMP280;54354;44.724;11.284;2024-01-15T07:52:22;100300.03;;;10.79
67509;BMP280;54354;44.724;11.284;2024-01-15T07:54:48;100286.78;;;10.79
67509;BMP280;54354;44.724;11.284;2024-01-15T07:57:13;100295.03;;;10.81
67509;BMP280;54354;44.724;11.284;2024-01-15T07:59:39;100285.19;;;10.81
67509;BMP280;54354;44.724;11.284;2024-01-15T08:02:05;100282.53;;;10.81
67509;BMP280;54354;44.724;11.284;2024-01-15T08:04:31;100286.34;;;10.80
67509;BMP280;54354;44.724;11.284;2024-01-15T08:06:57;100297.59;;;10.84
67509;BMP280;54354;44.724;11.284;2024-01-15T08:09:22;100287.00;;;10.84
67509;BMP280;54354;44.724;11.284;2024-01-15T08:11:48;100289.25;;;10.86
67509;BMP280;54354;44.724;11.284;2024-01-15T08:14:15;100296.38;;;10.89
67509;BMP280;54354;44.724;11.284;2024-01-15T08:16:40;100292.47;;;10.94
67509;BMP280;54354;44.724;11.284;2024-01-15T08:19:06;100291.66;;;10.97
67509;BMP280;54354;44.724;11.284;2024-01-15T08:21:32;100298.44;;;10.98
67509;BMP280;54354;44.724;11.284;2024-01-15T08:24:01;100296.53;;;10.98
67509;BMP280;54354;44.724;11.284;2024-01-15T08:26:28;100301.97;;;11.07
67509;BMP280;54354;44.724;11.284;2024-01-15T08:28:53;100298.56;;;11.07
67509;BMP280;54354;44.724;11.284;2024-01-15T08:31:19;100294.75;;;11.08
67509;BMP280;54354;44.724;11.284;2024-01-15T08:33:45;100281.13;;;11.09
67509;BMP280;54354;44.724;11.284;2024-01-15T08:36:11;100276.91;;;11.12
67509;BMP280;54354;44.724;11.284;2024-01-15T08:38:37;100276.91;;;11.12
67509;BMP280;54354;44.724;11.284;2024-01-15T08:41:03;100276.38;;;11.17
67509;BMP280;54354;44.724;11.284;2024-01-15T08:43:28;100282.34;;;11.21
67509;BMP280;54354;44.724;11.284;2024-01-15T08:45:55;100297.09;;;11.22
67509;BMP280;54354;44.724;11.284;2024-01-15T08:48:20;100308.66;;;11.28
67509;BMP280;54354;44.724;11.284;2024-01-15T08:50:46;100292.34;;;11.30
67509;BMP280;54354;44.724;11.284;2024-01-15T08:53:12;100287.81;;;11.30
67509;BMP280;54354;44.724;11.284;2024-01-15T08:55:38;100293.81;;;11.31
67509;BMP280;54354;44.724;11.284;2024-01-15T08:58:03;100299.47;;;11.33
67509;BMP280;54354;44.724;11.284;2024-01-15T09:00:29;100302.09;;;11.33
67509;BMP280;54354;44.724;11.284;2024-01-15T09:02:56;100293.00;;;11.34
67509;BMP280;54354;44.724;11.284;2024-01-15T09:05:22;100296.72;;;11.36
67509;BMP280;54354;44.724;11.284;2024-01-15T09:07:47;100295.13;;;11.39
67509;BMP280;54354;44.724;11.284;2024-01-15T09:10:13;100283.78;;;11.38
67509;BMP280;54354;44.724;11.284;2024-01-15T09:12:39;100279.22;;;11.39
67509;BMP280;54354;44.724;11.284;2024-01-15T09:15:05;100274.25;;;11.41
67509;BMP280;54354;44.724;11.284;2024-01-15T09:17:31;100270.22;;;11.36
67509;BMP280;54354;44.724;11.284;2024-01-15T09:19:57;100293.22;;;11.39
67509;BMP280;54354;44.724;11.284;2024-01-15T09:22:23;100290.91;;;11.41
67509;BMP280;54354;44.724;11.284;2024-01-15T09:24:49;100299.09;;;11.47
67509;BMP280;54354;44.724;11.284;2024-01-15T09:27:14;100292.19;;;11.50
67509;BMP280;54354;44.724;11.284;2024-01-15T09:29:41;100290.63;;;11.52
67509;BMP280;54354;44.724;11.284;2024-01-15T09:32:08;100289.78;;;11.55
67509;BMP280;54354;44.724;11.284;2024-01-15T09:34:34;100289.69;;;11.59
67509;BMP280;54354;44.724;11.284;2024-01-15T09:37:00;100292.25;;;11.62
67509;BMP280;54354;44.724;11.284;2024-01-15T09:39:27;100287.25;;;11.64
67509;BMP280;54354;44.724;11.284;2024-01-15T09:41:53;100290.25;;;11.66
67509;BMP280;54354;44.724;11.284;2024-01-15T09:44:19;100293.75;;;11.76
67509;BMP280;54354;44.724;11.284;2024-01-15T09:46:45;100284.22;;;11.79
67509;BMP280;54354;44.724;11.284;2024-01-15T09:49:11;100282.66;;;11.81
67509;BMP280;54354;44.724;11.284;2024-01-15T09:51:38;100270.13;;;11.82
67509;BMP280;54354;44.724;11.284;2024-01-15T09:54:04;100275.75;;;11.84
67509;BMP280;54354;44.724;11.284;2024-01-15T09:56:31;100285.53;;;11.87
67509;BMP280;54354;44.724;11.284;2024-01-15T09:58:57;100283.94;;;11.89
67509;BMP280;54354;44.724;11.284;2024-01-15T10:01:23;100276.59;;;11.93
67509;BMP280;54354;44.724;11.284;2024-01-15T10:03:50;100283.28;;;11.98
67509;BMP280;54354;44.724;11.284;2024-01-15T10:06:17;100277.56;;;12.00
67509;BMP280;54354;44.724;11.284;2024-01-15T10:08:48;100272.25;;;12.00
67509;BMP280;54354;44.724;11.284;2024-01-15T10:11:13;100271.22;;;12.10
67509;BMP280;54354;44.724;11.284;2024-01-15T10:13:39;100268.00;;;12.15
67509;BMP280;54354;44.724;11.284;2024-01-15T10:16:05;100260.38;;;12.17
67509;BMP280;54354;44.724;11.284;2024-01-15T10:18:32;100252.63;;;12.23
67509;BMP280;54354;44.724;11.284;2024-01-15T10:20:58;100258.78;;;12.32
67509;BMP280;54354;44.724;11.284;2024-01-15T10:23:24;100254.53;;;12.35
67509;BMP280;54354;44.724;11.284;2024-01-15T10:25:49;100254.84;;;12.37
67509;BMP280;54354;44.724;11.284;2024-01-15T10:28:19;100253.34;;;12.36
67509;BMP280;54354;44.724;11.284;2024-01-15T10:30:45;100242.94;;;12.41
67509;BMP280;54354;44.724;11.284;2024-01-15T10:33:10;100232.66;;;12.43
67509;BMP280;54354;44.724;11.284;2024-01-15T10:35:37;100214.81;;;12.44
67509;BMP280;54354;44.724;11.284;2024-01-15T10:38:03;100201.66;;;12.40
67509;BMP280;54354;44.724;11.284;2024-01-15T10:40:31;100218.72;;;12.52
67509;BMP280;54354;44.724;11.284;2024-01-15T10:43:17;100213.78;;;12.63
67509;BMP280;54354;44.724;11.284;2024-01-15T10:45:49;100218.06;;;12.61
67509;BMP280;54354;44.724;11.284;2024-01-15T10:48:17;100206.59;;;12.64
67509;BMP280;54354;44.724;11.284;2024-01-15T10:50:45;100198.72;;;12.60
67509;BMP280;54354;44.724;11.284;2024-01-15T10:53:15;100204.34;;;12.62
67509;BMP280;54354;44.724;11.284;2024-01-15T10:55:41;100202.63;;;13.34
67509;BMP280;54354;44.724;11.284;2024-01-15T10:58:08;100206.34;;;12.93
67509;BMP280;54354;44.724;11.284;2024-01-15T11:00:35;100201.09;;;12.80
67509;BMP280;54354;44.724;11.284;2024-01-15T11:03:01;100201.22;;;12.77
67509;BMP280;54354;44.724;11.284;2024-01-15T11:05:28;100196.63;;;12.77
67509;BMP280;54354;44.724;11.284;2024-01-15T11:07:56;100192.50;;;12.76
67509;BMP280;54354;44.724;11.284;2024-01-15T11:13:09;100171.75;;;12.84
67509;BMP280;54354;44.724;11.284;2024-01-15T11:16:05;100160.50;;;13.02
67509;BMP280;54354;44.724;11.284;2024-01-15T11:18:41;100141.91;;;13.02
67509;BMP280;54354;44.724;11.284;2024-01-15T11:26:46;100131.63;;;13.13
67509;BMP280;54354;44.724;11.284;2024-01-15T11:34:52;100131.06;;;13.18
67509;BMP280;54354;44.724;11.284;2024-01-15T11:37:19;100117.59;;;13.12
67509;BMP280;54354;44.724;11.284;2024-01-15T11:39:44;100115.38;;;13.11
67509;BMP280;54354;44.724;11.284;2024-01-15T11:42:12;100115.38;;;13.11
67509;BMP280;54354;44.724;11.284;2024-01-15T11:44:39;100114.63;;;13.10
67509;BMP280;54354;44.724;11.284;2024-01-15T11:50:03;100111.78;;;13.27
67509;BMP280;54354;44.724;11.284;2024-01-15T11:52:35;100111.44;;;13.24
67509;BMP280;54354;44.724;11.284;2024-01-15T11:55:11;100107.75;;;13.22
67509;BMP280;54354;44.724;11.284;2024-01-15T12:00:06;100102.16;;;13.29
67509;BMP280;54354;44.724;11.284;2024-01-15T12:02:42;100090.50;;;13.27
67509;BMP280;54354;44.724;11.284;2024-01-15T12:05:10;100097.88;;;13.32
67509;BMP280;54354;44.724;11.284;2024-01-15T12:07:41;100089.50;;;13.33
67509;BMP280;54354;44.724;11.284;2024-01-15T12:10:11;100080.94;;;13.38
67509;BMP280;54354;44.724;11.284;2024-01-15T12:12:59;100079.47;;;13.46
67509;BMP280;54354;44.724;11.284;2024-01-15T12:15:29;100080.97;;;13.47
67509;BMP280;54354;44.724;11.284;2024-01-15T12:17:56;100074.44;;;13.48
67509;BMP280;54354;44.724;11.284;2024-01-15T12:20:25;100064.28;;;13.56
67509;BMP280;54354;44.724;11.284;2024-01-15T12:22:51;100069.00;;;13.52
67509;BMP280;54354;44.724;11.284;2024-01-15T12:25:17;100058.97;;;13.56
67509;BMP280;54354;44.724;11.284;2024-01-15T12:27:43;100040.22;;;13.60
67509;BMP280;54354;44.724;11.284;2024-01-15T12:30:13;100027.50;;;13.55
67509;BMP280;54354;44.724;11.284;2024-01-15T12:32:43;100013.31;;;13.58
67509;BMP280;54354;44.724;11.284;2024-01-15T12:35:10;100007.69;;;13.56
67509;BMP280;54354;44.724;11.284;2024-01-15T12:37:37;100008.44;;;13.56
67509;BMP280;54354;44.724;11.284;2024-01-15T12:40:03;100009.03;;;13.60
67509;BMP280;54354;44.724;11.284;2024-01-15T12:42:33;100005.81;;;13.65
67509;BMP280;54354;44.724;11.284;2024-01-15T12:45:00;100000.31;;;13.69
67509;BMP280;54354;44.724;11.284;2024-01-15T12:47:26;100005.09;;;13.74
67509;BMP280;54354;44.724;11.284;2024-01-15T12:49:52;99994.56;;;13.79
67509;BMP280;54354;44.724;11.284;2024-01-15T12:52:21;99988.22;;;13.86
67509;BMP280;54354;44.724;11.284;2024-01-15T12:54:49;99984.22;;;13.91
67509;BMP280;54354;44.724;11.284;2024-01-15T12:57:15;99981.53;;;14.00
67509;BMP280;54354;44.724;11.284;2024-01-15T12:59:41;99979.91;;;14.02
67509;BMP280;54354;44.724;11.284;2024-01-15T13:02:07;99980.06;;;14.08
67509;BMP280;54354;44.724;11.284;2024-01-15T13:04:32;99975.28;;;14.12
67509;BMP280;54354;44.724;11.284;2024-01-15T13:06:58;99973.41;;;14.13
67509;BMP280;54354;44.724;11.284;2024-01-15T13:09:24;99954.63;;;14.16
67509;BMP280;54354;44.724;11.284;2024-01-15T13:11:50;99955.63;;;14.19
67509;BMP280;54354;44.724;11.284;2024-01-15T13:14:17;99959.78;;;14.20
67509;BMP280;54354;44.724;11.284;2024-01-15T13:16:43;99961.25;;;14.21
67509;BMP280;54354;44.724;11.284;2024-01-15T13:19:09;99953.56;;;14.23
67509;BMP280;54354;44.724;11.284;2024-01-15T13:21:37;99938.47;;;14.20
67509;BMP280;54354;44.724;11.284;2024-01-15T13:24:03;99947.03;;;14.24
67509;BMP280;54354;44.724;11.284;2024-01-15T13:26:32;99943.66;;;14.23
67509;BMP280;54354;44.724;11.284;2024-01-15T13:29:02;99934.75;;;14.26
67509;BMP280;54354;44.724;11.284;2024-01-15T13:31:32;99932.69;;;14.30
67509;BMP280;54354;44.724;11.284;2024-01-15T13:33:59;99938.13;;;14.36
67509;BMP280;54354;44.724;11.284;2024-01-15T13:36:26;99922.63;;;14.25
67509;BMP280;54354;44.724;11.284;2024-01-15T13:38:52;99935.06;;;14.28
67509;BMP280;54354;44.724;11.284;2024-01-15T13:41:22;99937.41;;;14.26
67509;BMP280;54354;44.724;11.284;2024-01-15T13:43:53;99933.41;;;14.31
67509;BMP280;54354;44.724;11.284;2024-01-15T13:46:24;99934.59;;;14.30
67509;BMP280;54354;44.724;11.284;2024-01-15T13:48:52;99931.78;;;14.34
67509;BMP280;54354;44.724;11.284;2024-01-15T13:51:21;99925.56;;;14.37
67509;BMP280;54354;44.724;11.284;2024-01-15T13:53:47;99914.03;;;14.40
67509;BMP280;54354;44.724;11.284;2024-01-15T13:56:13;99917.97;;;14.44
67509;BMP280;54354;44.724;11.284;2024-01-15T13:58:39;99915.16;;;14.48
67509;BMP280;54354;44.724;11.284;2024-01-15T14:01:05;99909.38;;;14.49
67509;BMP280;54354;44.724;11.284;2024-01-15T14:03:31;99904.78;;;14.50